createdAt,value
2022-12-13T00:07:09.334Z,11.70
2022-12-13T00:17:13.356Z,9.70
2022-12-13T00:27:17.380Z,13.30
2022-12-13T00:37:21.083Z,7.70
2022-12-13T00:47:25.190Z,10.50
2022-12-13T00:57:29.455Z,8.70
2022-12-13T01:07:33.065Z,7.20
2022-12-13T01:17:36.858Z,7.00
2022-12-13T01:27:40.657Z,6.10
2022-12-13T01:37:44.311Z,6.40
2022-12-13T01:47:57.085Z,6.00
2022-12-13T01:58:03.761Z,7.90
2022-12-13T02:08:11.382Z,7.40
2022-12-13T02:18:18.151Z,6.50
2022-12-13T02:28:54.455Z,5.90
2022-12-13T02:39:04.062Z,5.10
2022-12-13T02:49:10.523Z,5.80
2022-12-13T02:59:15.723Z,5.20
2022-12-13T03:09:38.144Z,5.60
2022-12-13T03:19:41.937Z,6.20
2022-12-13T03:29:46.062Z,6.50
2022-12-13T03:39:49.960Z,7.10
2022-12-13T03:49:54.356Z,6.50
2022-12-13T03:59:58.766Z,7.30
2022-12-13T04:10:04.292Z,7.90
2022-12-13T04:20:28.355Z,5.90
2022-12-13T04:30:32.491Z,8.70
2022-12-13T04:40:36.513Z,9.70
2022-12-13T04:50:40.577Z,8.50
2022-12-13T05:00:44.623Z,7.80
2022-12-13T05:10:48.791Z,10.00
2022-12-13T05:20:53.806Z,9.50
2022-12-13T05:31:23.657Z,7.40
2022-12-13T05:41:32.289Z,9.10
2022-12-13T05:51:36.393Z,7.70
2022-12-13T06:01:43.554Z,8.00
2022-12-13T06:11:48.573Z,7.30
2022-12-13T06:21:54.281Z,9.00
2022-12-13T06:32:03.343Z,7.50
2022-12-13T06:42:14.820Z,8.50
2022-12-13T06:52:26.191Z,8.70
2022-12-13T07:02:30.012Z,9.90
2022-12-13T07:12:34.105Z,9.40
2022-12-13T07:22:46.755Z,10.70
2022-12-13T07:32:51.310Z,11.40
2022-12-13T07:42:57.055Z,12.40
2022-12-13T07:53:08.895Z,12.60
2022-12-13T08:03:24.176Z,13.20
2022-12-13T08:13:28.557Z,18.70
2022-12-13T08:23:34.437Z,19.80
2022-12-13T08:33:40.737Z,19.90
2022-12-13T08:43:44.555Z,19.00
2022-12-13T08:53:48.255Z,20.50
2022-12-13T09:03:52.329Z,25.60
2022-12-13T09:14:01.502Z,81.50
2022-12-13T09:24:13.392Z,66.90
2022-12-13T09:34:28.568Z,23.70
2022-12-13T09:44:53.655Z,16.40
2022-12-13T09:55:21.447Z,9.00
2022-12-13T10:05:39.594Z,7.80
2022-12-13T10:16:13.626Z,9.40
2022-12-13T10:26:23.931Z,11.30
2022-12-13T10:36:33.110Z,7.50
2022-12-13T10:46:42.572Z,9.00
2022-12-13T10:56:50.296Z,6.90
2022-12-13T11:06:54.218Z,6.70
2022-12-13T11:17:01.474Z,4.50
2022-12-13T11:27:33.524Z,4.20
2022-12-13T11:37:45.620Z,4.70
2022-12-13T11:48:04.435Z,5.30
2022-12-13T11:58:32.568Z,5.30
2022-12-13T12:08:48.243Z,4.80
2022-12-13T12:18:53.499Z,5.50
2022-12-13T12:29:15.920Z,7.80
2022-12-13T12:39:38.082Z,7.30
2022-12-13T12:49:54.320Z,7.00
2022-12-13T13:00:09.885Z,8.50
2022-12-13T13:10:25.768Z,7.60
2022-12-13T13:20:30.948Z,8.20
2022-12-13T13:30:35.993Z,9.60
2022-12-13T13:40:39.884Z,8.50
2022-12-13T13:51:02.780Z,7.80
2022-12-13T14:01:44.465Z,17.60
2022-12-13T14:12:22.566Z,13.50
2022-12-13T14:23:04.291Z,17.40
2022-12-13T14:33:20.744Z,23.00
2022-12-13T14:43:30.517Z,18.30
2022-12-13T14:53:41.691Z,13.10
2022-12-13T15:03:46.007Z,13.70
2022-12-13T15:13:53.114Z,27.30
2022-12-13T15:23:59.035Z,24.50
2022-12-13T15:34:30.197Z,26.10
2022-12-13T15:44:48.116Z,19.90
2022-12-13T15:54:56.685Z,32.90
2022-12-13T16:05:09.809Z,32.30
2022-12-13T16:15:51.277Z,33.10
2022-12-13T16:25:55.674Z,24.30
2022-12-13T16:36:00.256Z,27.70
2022-12-13T16:47:15.373Z,32.00
2022-12-13T16:56:31.099Z,42.80
2022-12-13T17:06:36.204Z,44.80
2022-12-13T17:16:41.455Z,41.50
2022-12-13T17:26:54.693Z,37.20
2022-12-13T17:37:05.617Z,35.30
2022-12-13T17:47:14.816Z,40.10
2022-12-13T17:57:19.880Z,42.90
2022-12-13T18:07:25.731Z,70.80
2022-12-13T18:18:08.930Z,91.80
2022-12-13T18:28:01.197Z,83.80
2022-12-13T18:38:07.312Z,82.20
2022-12-13T18:48:13.806Z,74.90
2022-12-13T18:58:22.178Z,73.10
2022-12-13T19:08:31.442Z,65.80
2022-12-13T19:18:38.958Z,56.40
2022-12-13T19:28:46.041Z,58.60
2022-12-13T19:38:57.534Z,56.70
2022-12-13T19:49:05.629Z,57.60
2022-12-13T19:59:13.903Z,63.70
2022-12-13T20:09:33.426Z,59.90
2022-12-13T20:19:41.817Z,60.10
2022-12-13T20:29:50.590Z,75.60
2022-12-13T20:40:01.807Z,63.90
2022-12-13T20:50:11.511Z,70.30
2022-12-13T21:00:19.717Z,71.00
2022-12-13T21:10:28.294Z,59.60
2022-12-13T21:20:34.047Z,61.40
2022-12-13T21:30:39.833Z,60.20
2022-12-13T21:40:51.580Z,64.50
2022-12-13T21:50:56.504Z,66.40
2022-12-13T22:01:00.763Z,68.40
2022-12-13T22:11:20.886Z,73.10
2022-12-13T22:21:26.371Z,78.60
2022-12-13T22:31:30.327Z,74.60
2022-12-13T22:41:34.979Z,83.40
2022-12-13T22:51:40.283Z,83.40
2022-12-13T23:01:47.041Z,83.20
2022-12-13T23:12:10.636Z,62.10
2022-12-13T23:22:14.925Z,68.80
2022-12-13T23:32:19.810Z,64.70
2022-12-13T23:42:23.991Z,67.80
2022-12-13T23:52:27.755Z,61.60
